Paradis, Louisiana
Current Conditions -  °F | °C
As of 7:53 PM on Saturday 25 Oct 2014 (Local Time) from KMSY Reporting Station
Clear Clear  
Wind Chill: 69°   Ceiling: Unl
Heat Index: 69°   Visibility: 10mi
Dew Point: 57°   Wind: 3mph
Humidity: 65%   Direction: 270°W
Pressure: 30.08"   Gusts: NA
Location:  29.88°N, 90.43°W
Report Text: KMSY 260053Z 27003KT 10SM CLR 21/14 A3008 RMK AO2 SLP189 T02060139
Loading
Personal Weather Stations






























Interactive Weather Map
Tropical Storm Tracking
New forecast layout! Learn more

10-Day Weather Forecast

Advertisements
Track Severe Weather on mobile